sensor_id;sensor_type;location;lat;lon;timestamp;temperature;humidity
43089;DHT22;28709;52.030;5.652;2023-08-07T00:00:31;13.20;99.90
43089;DHT22;28709;52.030;5.652;2023-08-07T00:02:57;13.10;99.90
43089;DHT22;28709;52.030;5.652;2023-08-07T00:05:23;13.10;99.90
43089;DHT22;28709;52.030;5.652;2023-08-07T00:07:48;13.20;99.90
43089;DHT22;28709;52.030;5.652;2023-08-07T00:10:14;13.10;99.90
43089;DHT22;28709;52.030;5.652;2023-08-07T00:12:40;13.10;99.90
43089;DHT22;28709;52.030;5.652;2023-08-07T00:15:06;13.10;99.90
43089;DHT22;28709;52.030;5.652;2023-08-07T00:17:32;13.10;99.90
43089;DHT22;28709;52.030;5.652;2023-08-07T00:19:57;13.10;99.90
43089;DHT22;28709;52.030;5.652;2023-08-07T00:22:23;13.10;99.90
43089;DHT22;28709;52.030;5.652;2023-08-07T00:24:50;13.00;99.90
43089;DHT22;28709;52.030;5.652;2023-08-07T00:27:16;13.00;99.90
43089;DHT22;28709;52.030;5.652;2023-08-07T00:29:41;13.00;99.90
43089;DHT22;28709;52.030;5.652;2023-08-07T00:32:07;13.00;99.90
43089;DHT22;28709;52.030;5.652;2023-08-07T00:34:34;12.90;99.90
43089;DHT22;28709;52.030;5.652;2023-08-07T00:37:00;12.90;99.90
43089;DHT22;28709;52.030;5.652;2023-08-07T00:39:25;12.90;99.90
43089;DHT22;28709;52.030;5.652;2023-08-07T00:41:51;12.80;99.90
43089;DHT22;28709;52.030;5.652;2023-08-07T00:44:17;12.80;99.90
43089;DHT22;28709;52.030;5.652;2023-08-07T00:46:43;12.80;99.90
43089;DHT22;28709;52.030;5.652;2023-08-07T00:49:09;12.80;99.90
43089;DHT22;28709;52.030;5.652;2023-08-07T00:51:36;12.80;99.90
43089;DHT22;28709;52.030;5.652;2023-08-07T00:54:04;12.90;99.90
43089;DHT22;28709;52.030;5.652;2023-08-07T00:56:30;12.90;99.90
43089;DHT22;28709;52.030;5.652;2023-08-07T00:59:00;12.90;99.90
43089;DHT22;28709;52.030;5.652;2023-08-07T01:01:26;12.90;99.90
43089;DHT22;28709;52.030;5.652;2023-08-07T01:03:53;12.90;99.90
43089;DHT22;28709;52.030;5.652;2023-08-07T01:06:18;12.90;99.90
43089;DHT22;28709;52.030;5.652;2023-08-07T01:08:44;12.90;99.90
43089;DHT22;28709;52.030;5.652;2023-08-07T01:14:02;13.00;99.90
43089;DHT22;28709;52.030;5.652;2023-08-07T01:16:58;13.00;99.90
43089;DHT22;28709;52.030;5.652;2023-08-07T01:19:27;13.00;99.90
43089;DHT22;28709;52.030;5.652;2023-08-07T01:22:12;13.00;99.90
43089;DHT22;28709;52.030;5.652;2023-08-07T01:24:40;13.00;99.90
43089;DHT22;28709;52.030;5.652;2023-08-07T01:35:15;13.10;99.90
43089;DHT22;28709;52.030;5.652;2023-08-07T01:37:42;13.10;99.90
43089;DHT22;28709;52.030;5.652;2023-08-07T01:40:09;13.10;99.90
43089;DHT22;28709;52.030;5.652;2023-08-07T01:42:36;13.10;99.90
43089;DHT22;28709;52.030;5.652;2023-08-07T01:45:02;13.10;99.90
43089;DHT22;28709;52.030;5.652;2023-08-07T01:47:29;13.10;99.90
43089;DHT22;28709;52.030;5.652;2023-08-07T01:49:55;13.20;99.90
43089;DHT22;28709;52.030;5.652;2023-08-07T01:52:20;13.10;99.90
43089;DHT22;28709;52.030;5.652;2023-08-07T01:54:46;13.10;99.90
43089;DHT22;28709;52.030;5.652;2023-08-07T01:57:12;13.20;99.90
43089;DHT22;28709;52.030;5.652;2023-08-07T01:59:38;13.20;99.90
43089;DHT22;28709;52.030;5.652;2023-08-07T02:02:04;13.20;99.90
43089;DHT22;28709;52.030;5.652;2023-08-07T02:04:29;13.20;99.90
43089;DHT22;28709;52.030;5.652;2023-08-07T02:06:55;13.20;99.90
43089;DHT22;28709;52.030;5.652;2023-08-07T02:09:21;13.20;99.90
43089;DHT22;28709;52.030;5.652;2023-08-07T02:11:47;13.20;99.90
43089;DHT22;28709;52.030;5.652;2023-08-07T02:14:12;13.20;99.90
43089;DHT22;28709;52.030;5.652;2023-08-07T02:16:38;13.20;99.90
43089;DHT22;28709;52.030;5.652;2023-08-07T02:19:04;13.20;99.90
43089;DHT22;28709;52.030;5.652;2023-08-07T02:21:29;13.20;99.90
43089;DHT22;28709;52.030;5.652;2023-08-07T02:23:55;13.20;99.90
43089;DHT22;28709;52.030;5.652;2023-08-07T02:26:20;13.20;99.90
43089;DHT22;28709;52.030;5.652;2023-08-07T02:28:46;13.20;99.90
43089;DHT22;28709;52.030;5.652;2023-08-07T02:31:12;13.20;99.90
43089;DHT22;28709;52.030;5.652;2023-08-07T02:33:37;13.20;99.90
43089;DHT22;28709;52.030;5.652;2023-08-07T02:36:03;13.20;99.90
43089;DHT22;28709;52.030;5.652;2023-08-07T02:38:28;13.20;99.90
43089;DHT22;28709;52.030;5.652;2023-08-07T02:40:54;13.20;99.90
43089;DHT22;28709;52.030;5.652;2023-08-07T02:43:20;13.20;99.90
43089;DHT22;28709;52.030;5.652;2023-08-07T02:45:45;13.20;99.90
43089;DHT22;28709;52.030;5.652;2023-08-07T02:48:11;13.20;99.90
43089;DHT22;28709;52.030;5.652;2023-08-07T02:50:37;13.20;99.90
43089;DHT22;28709;52.030;5.652;2023-08-07T02:53:02;13.20;99.90
43089;DHT22;28709;52.030;5.652;2023-08-07T02:55:28;13.20;99.90
43089;DHT22;28709;52.030;5.652;2023-08-07T02:57:53;13.20;99.90
43089;DHT22;28709;52.030;5.652;2023-08-07T03:00:19;13.20;99.90
43089;DHT22;28709;52.030;5.652;2023-08-07T03:02:45;13.20;99.90
43089;DHT22;28709;52.030;5.652;2023-08-07T03:05:11;13.30;99.90
43089;DHT22;28709;52.030;5.652;2023-08-07T03:07:36;13.20;99.90
43089;DHT22;28709;52.030;5.652;2023-08-07T03:10:02;13.30;99.90
43089;DHT22;28709;52.030;5.652;2023-08-07T03:12:29;13.30;99.90
43089;DHT22;28709;52.030;5.652;2023-08-07T03:14:55;13.20;99.90
43089;DHT22;28709;52.030;5.652;2023-08-07T03:17:20;13.30;99.90
43089;DHT22;28709;52.030;5.652;2023-08-07T03:19:46;13.30;99.90
43089;DHT22;28709;52.030;5.652;2023-08-07T03:22:12;13.30;99.90
43089;DHT22;28709;52.030;5.652;2023-08-07T03:24:38;13.30;99.90
43089;DHT22;28709;52.030;5.652;2023-08-07T03:27:04;13.30;99.90
43089;DHT22;28709;52.030;5.652;2023-08-07T03:29:30;13.20;99.90
43089;DHT22;28709;52.030;5.652;2023-08-07T03:31:55;13.20;99.90
43089;DHT22;28709;52.030;5.652;2023-08-07T03:34:21;13.20;99.90
43089;DHT22;28709;52.030;5.652;2023-08-07T03:36:46;13.20;99.90
43089;DHT22;28709;52.030;5.652;2023-08-07T03:39:12;13.20;99.90
43089;DHT22;28709;52.030;5.652;2023-08-07T03:41:38;13.20;99.90
43089;DHT22;28709;52.030;5.652;2023-08-07T03:44:04;13.20;99.90
43089;DHT22;28709;52.030;5.652;2023-08-07T03:46:29;13.20;99.90
43089;DHT22;28709;52.030;5.652;2023-08-07T03:48:55;13.20;99.90
43089;DHT22;28709;52.030;5.652;2023-08-07T03:51:20;13.20;99.90
43089;DHT22;28709;52.030;5.652;2023-08-07T03:53:46;13.20;99.90
43089;DHT22;28709;52.030;5.652;2023-08-07T03:56:12;13.20;99.90
43089;DHT22;28709;52.030;5.652;2023-08-07T03:58:37;13.20;99.90
43089;DHT22;28709;52.030;5.652;2023-08-07T04:01:03;13.20;99.90
43089;DHT22;28709;52.030;5.652;2023-08-07T04:03:29;13.20;99.90
43089;DHT22;28709;52.030;5.652;2023-08-07T04:05:55;13.20;99.90
43089;DHT22;28709;52.030;5.652;2023-08-07T04:08:21;13.20;99.90
43089;DHT22;28709;52.030;5.652;2023-08-07T04:11:04;13.20;99.90
43089;DHT22;28709;52.030;5.652;2023-08-07T04:13:30;13.20;99.90
43089;DHT22;28709;52.030;5.652;2023-08-07T04:15:57;13.20;99.90
43089;DHT22;28709;52.030;5.652;2023-08-07T04:18:23;13.20;99.90
43089;DHT22;28709;52.030;5.652;2023-08-07T04:20:53;13.20;99.90
43089;DHT22;28709;52.030;5.652;2023-08-07T04:23:19;13.20;99.90
43089;DHT22;28709;52.030;5.652;2023-08-07T04:25:45;13.20;99.90
43089;DHT22;28709;52.030;5.652;2023-08-07T04:28:12;13.20;99.90
43089;DHT22;28709;52.030;5.652;2023-08-07T04:30:37;13.20;99.90
43089;DHT22;28709;52.030;5.652;2023-08-07T04:33:03;13.20;99.90
43089;DHT22;28709;52.030;5.652;2023-08-07T04:35:30;13.20;99.90
43089;DHT22;28709;52.030;5.652;2023-08-07T04:37:56;13.20;99.90
43089;DHT22;28709;52.030;5.652;2023-08-07T04:40:21;13.20;99.90
43089;DHT22;28709;52.030;5.652;2023-08-07T04:42:49;13.20;99.90
43089;DHT22;28709;52.030;5.652;2023-08-07T04:45:14;13.30;99.90
43089;DHT22;28709;52.030;5.652;2023-08-07T04:47:40;13.30;99.90
43089;DHT22;28709;52.030;5.652;2023-08-07T04:50:07;13.30;99.90
43089;DHT22;28709;52.030;5.652;2023-08-07T04:52:33;13.30;99.90
43089;DHT22;28709;52.030;5.652;2023-08-07T04:54:59;13.30;99.90
43089;DHT22;28709;52.030;5.652;2023-08-07T04:57:25;13.30;99.90
43089;DHT22;28709;52.030;5.652;2023-08-07T04:59:51;13.30;99.90
43089;DHT22;28709;52.030;5.652;2023-08-07T05:02:16;13.30;99.90
43089;DHT22;28709;52.030;5.652;2023-08-07T05:04:43;13.30;99.90
43089;DHT22;28709;52.030;5.652;2023-08-07T05:07:08;13.40;99.90
43089;DHT22;28709;52.030;5.652;2023-08-07T05:09:35;13.40;99.90
43089;DHT22;28709;52.030;5.652;2023-08-07T05:12:01;13.40;99.90
43089;DHT22;28709;52.030;5.652;2023-08-07T05:14:28;13.40;99.90
43089;DHT22;28709;52.030;5.652;2023-08-07T05:16:54;13.40;99.90
43089;DHT22;28709;52.030;5.652;2023-08-07T05:19:20;13.40;99.90
43089;DHT22;28709;52.030;5.652;2023-08-07T05:21:45;13.40;99.90
43089;DHT22;28709;52.030;5.652;2023-08-07T05:24:15;13.50;99.90
43089;DHT22;28709;52.030;5.652;2023-08-07T05:26:41;13.40;99.90
43089;DHT22;28709;52.030;5.652;2023-08-07T05:29:07;13.50;99.90
43089;DHT22;28709;52.030;5.652;2023-08-07T05:31:33;13.50;99.90
43089;DHT22;28709;52.030;5.652;2023-08-07T05:33:59;13.50;99.90
43089;DHT22;28709;52.030;5.652;2023-08-07T05:36:25;13.50;99.90
43089;DHT22;28709;52.030;5.652;2023-08-07T05:38:51;13.50;99.90
43089;DHT22;28709;52.030;5.652;2023-08-07T05:41:16;13.50;99.90
43089;DHT22;28709;52.030;5.652;2023-08-07T05:43:42;13.50;99.90
43089;DHT22;28709;52.030;5.652;2023-08-07T05:46:08;13.50;99.90
43089;DHT22;28709;52.030;5.652;2023-08-07T05:48:33;13.50;99.90
43089;DHT22;28709;52.030;5.652;2023-08-07T05:50:59;13.50;99.90
43089;DHT22;28709;52.030;5.652;2023-08-07T05:53:25;13.50;99.90
43089;DHT22;28709;52.030;5.652;2023-08-07T05:55:50;13.40;99.90
43089;DHT22;28709;52.030;5.652;2023-08-07T05:58:16;13.40;99.90
43089;DHT22;28709;52.030;5.652;2023-08-07T06:00:41;13.40;99.90
43089;DHT22;28709;52.030;5.652;2023-08-07T06:03:07;13.40;99.90
43089;DHT22;28709;52.030;5.652;2023-08-07T06:05:34;13.40;99.90
43089;DHT22;28709;52.030;5.652;2023-08-07T06:08:00;13.40;99.90
43089;DHT22;28709;52.030;5.652;2023-08-07T06:10:26;13.40;99.90
43089;DHT22;28709;52.030;5.652;2023-08-07T06:12:52;13.50;99.90
43089;DHT22;28709;52.030;5.652;2023-08-07T06:15:17;13.50;99.90
43089;DHT22;28709;52.030;5.652;2023-08-07T06:17:43;13.50;99.90
43089;DHT22;28709;52.030;5.652;2023-08-07T06:20:09;13.60;99.90
43089;DHT22;28709;52.030;5.652;2023-08-07T06:22:36;13.60;99.90
43089;DHT22;28709;52.030;5.652;2023-08-07T06:25:02;13.60;99.90
43089;DHT22;28709;52.030;5.652;2023-08-07T06:27:27;13.60;99.90
43089;DHT22;28709;52.030;5.652;2023-08-07T06:29:53;13.70;99.90
43089;DHT22;28709;52.030;5.652;2023-08-07T06:32:19;13.60;99.90
43089;DHT22;28709;52.030;5.652;2023-08-07T06:34:45;13.70;99.90
43089;DHT22;28709;52.030;5.652;2023-08-07T06:37:12;13.70;99.90
43089;DHT22;28709;52.030;5.652;2023-08-07T06:39:37;13.80;99.90
43089;DHT22;28709;52.030;5.652;2023-08-07T06:42:03;13.80;99.90
43089;DHT22;28709;52.030;5.652;2023-08-07T06:44:29;13.80;99.90
43089;DHT22;28709;52.030;5.652;2023-08-07T06:46:55;13.80;99.90
43089;DHT22;28709;52.030;5.652;2023-08-07T06:49:20;13.90;99.90
43089;DHT22;28709;52.030;5.652;2023-08-07T06:51:46;13.90;99.90
43089;DHT22;28709;52.030;5.652;2023-08-07T06:54:12;14.00;99.90
43089;DHT22;28709;52.030;5.652;2023-08-07T06:56:37;14.00;99.90
43089;DHT22;28709;52.030;5.652;2023-08-07T06:59:06;14.20;99.90
43089;DHT22;28709;52.030;5.652;2023-08-07T07:01:31;14.20;99.90
43089;DHT22;28709;52.030;5.652;2023-08-07T07:03:58;14.30;99.90
43089;DHT22;28709;52.030;5.652;2023-08-07T07:06:23;14.30;99.90
43089;DHT22;28709;52.030;5.652;2023-08-07T07:08:51;14.40;99.90
43089;DHT22;28709;52.030;5.652;2023-08-07T07:11:21;14.50;99.90
43089;DHT22;28709;52.030;5.652;2023-08-07T07:13:48;14.50;99.90
43089;DHT22;28709;52.030;5.652;2023-08-07T07:16:14;14.50;99.90
43089;DHT22;28709;52.030;5.652;2023-08-07T07:18:40;14.50;99.90
43089;DHT22;28709;52.030;5.652;2023-08-07T07:21:06;14.50;99.90
43089;DHT22;28709;52.030;5.652;2023-08-07T07:23:31;14.50;99.90
43089;DHT22;28709;52.030;5.652;2023-08-07T07:25:57;14.60;99.90
43089;DHT22;28709;52.030;5.652;2023-08-07T07:28:23;14.80;99.90
43089;DHT22;28709;52.030;5.652;2023-08-07T07:30:51;15.00;99.90
43089;DHT22;28709;52.030;5.652;2023-08-07T07:33:18;15.10;99.90
43089;DHT22;28709;52.030;5.652;2023-08-07T07:35:43;15.20;99.90
43089;DHT22;28709;52.030;5.652;2023-08-07T07:38:10;15.20;99.90
43089;DHT22;28709;52.030;5.652;2023-08-07T07:40:36;15.20;99.90
43089;DHT22;28709;52.030;5.652;2023-08-07T07:43:02;15.10;99.90
43089;DHT22;28709;52.030;5.652;2023-08-07T07:45:27;14.90;99.90
43089;DHT22;28709;52.030;5.652;2023-08-07T07:47:59;14.80;99.90
43089;DHT22;28709;52.030;5.652;2023-08-07T07:50:24;14.70;99.90
43089;DHT22;28709;52.030;5.652;2023-08-07T07:52:50;14.50;99.90
43089;DHT22;28709;52.030;5.652;2023-08-07T07:55:16;14.50;99.90
43089;DHT22;28709;52.030;5.652;2023-08-07T07:57:42;14.50;99.90
43089;DHT22;28709;52.030;5.652;2023-08-07T08:00:08;14.70;99.90
43089;DHT22;28709;52.030;5.652;2023-08-07T08:02:36;14.80;99.90
43089;DHT22;28709;52.030;5.652;2023-08-07T08:05:02;14.90;99.90
43089;DHT22;28709;52.030;5.652;2023-08-07T08:07:28;15.00;99.90
43089;DHT22;28709;52.030;5.652;2023-08-07T08:09:53;15.10;99.90
43089;DHT22;28709;52.030;5.652;2023-08-07T08:12:21;15.10;99.90
43089;DHT22;28709;52.030;5.652;2023-08-07T08:14:46;15.20;99.90
43089;DHT22;28709;52.030;5.652;2023-08-07T08:17:12;15.30;99.90
43089;DHT22;28709;52.030;5.652;2023-08-07T08:19:37;15.40;99.90
43089;DHT22;28709;52.030;5.652;2023-08-07T08:22:03;15.40;99.90
43089;DHT22;28709;52.030;5.652;2023-08-07T08:24:29;15.30;99.90
43089;DHT22;28709;52.030;5.652;2023-08-07T08:26:57;15.10;99.90
43089;DHT22;28709;52.030;5.652;2023-08-07T08:29:23;14.90;99.90
43089;DHT22;28709;52.030;5.652;2023-08-07T08:31:48;14.80;99.90
43089;DHT22;28709;52.030;5.652;2023-08-07T08:34:14;14.70;99.90
43089;DHT22;28709;52.030;5.652;2023-08-07T08:36:39;14.70;99.90
43089;DHT22;28709;52.030;5.652;2023-08-07T08:39:05;14.70;99.90
43089;DHT22;28709;52.030;5.652;2023-08-07T08:41:31;14.80;99.90
43089;DHT22;28709;52.030;5.652;2023-08-07T08:43:57;14.80;99.90
43089;DHT22;28709;52.030;5.652;2023-08-07T08:46:27;14.80;99.90
43089;DHT22;28709;52.030;5.652;2023-08-07T08:48:57;14.80;99.90
43089;DHT22;28709;52.030;5.652;2023-08-07T08:51:24;14.80;99.90
43089;DHT22;28709;52.030;5.652;2023-08-07T08:53:52;14.90;99.90
43089;DHT22;28709;52.030;5.652;2023-08-07T08:56:19;15.00;99.90
43089;DHT22;28709;52.030;5.652;2023-08-07T08:58:45;15.30;99.90
43089;DHT22;28709;52.030;5.652;2023-08-07T09:01:11;15.50;99.90
43089;DHT22;28709;52.030;5.652;2023-08-07T09:03:37;15.70;99.90
43089;DHT22;28709;52.030;5.652;2023-08-07T09:06:03;16.00;99.90
43089;DHT22;28709;52.030;5.652;2023-08-07T09:08:32;16.20;99.90
43089;DHT22;28709;52.030;5.652;2023-08-07T09:11:00;16.40;99.90
43089;DHT22;28709;52.030;5.652;2023-08-07T09:13:28;16.60;99.90
43089;DHT22;28709;52.030;5.652;2023-08-07T09:15:55;16.50;99.90
43089;DHT22;28709;52.030;5.652;2023-08-07T09:18:23;16.40;99.90
43089;DHT22;28709;52.030;5.652;2023-08-07T09:20:49;16.20;99.90
43089;DHT22;28709;52.030;5.652;2023-08-07T09:23:16;16.10;99.90
43089;DHT22;28709;52.030;5.652;2023-08-07T09:25:42;16.00;99.90
43089;DHT22;28709;52.030;5.652;2023-08-07T09:28:09;15.90;99.90
43089;DHT22;28709;52.030;5.652;2023-08-07T09:30:36;15.80;99.90
43089;DHT22;28709;52.030;5.652;2023-08-07T09:33:03;15.90;99.90
43089;DHT22;28709;52.030;5.652;2023-08-07T09:35:30;15.90;99.90
43089;DHT22;28709;52.030;5.652;2023-08-07T09:37:57;16.00;99.90
43089;DHT22;28709;52.030;5.652;2023-08-07T09:40:23;16.10;99.90
43089;DHT22;28709;52.030;5.652;2023-08-07T09:42:54;16.10;99.90
43089;DHT22;28709;52.030;5.652;2023-08-07T09:45:26;16.20;99.90
43089;DHT22;28709;52.030;5.652;2023-08-07T09:48:03;16.50;99.90
43089;DHT22;28709;52.030;5.652;2023-08-07T09:50:30;16.80;99.90
43089;DHT22;28709;52.030;5.652;2023-08-07T09:52:56;17.10;99.90
43089;DHT22;28709;52.030;5.652;2023-08-07T09:55:23;17.20;99.90
43089;DHT22;28709;52.030;5.652;2023-08-07T09:57:50;17.40;99.90
43089;DHT22;28709;52.030;5.652;2023-08-07T10:00:17;17.60;99.90
43089;DHT22;28709;52.030;5.652;2023-08-07T10:02:48;17.70;99.90
43089;DHT22;28709;52.030;5.652;2023-08-07T10:05:14;17.70;99.90
43089;DHT22;28709;52.030;5.652;2023-08-07T10:07:40;17.60;99.90
43089;DHT22;28709;52.030;5.652;2023-08-07T10:10:07;17.60;99.90
43089;DHT22;28709;52.030;5.652;2023-08-07T10:12:33;17.50;99.90
43089;DHT22;28709;52.030;5.652;2023-08-07T10:15:00;17.40;99.90
43089;DHT22;28709;52.030;5.652;2023-08-07T10:17:26;17.30;99.90
43089;DHT22;28709;52.030;5.652;2023-08-07T10:19:52;17.30;99.90
43089;DHT22;28709;52.030;5.652;2023-08-07T10:22:19;17.20;99.90
43089;DHT22;28709;52.030;5.652;2023-08-07T10:24:47;17.20;99.90
43089;DHT22;28709;52.030;5.652;2023-08-07T10:27:15;17.20;99.90
43089;DHT22;28709;52.030;5.652;2023-08-07T10:29:43;17.20;99.90
43089;DHT22;28709;52.030;5.652;2023-08-07T10:32:10;17.20;99.90
43089;DHT22;28709;52.030;5.652;2023-08-07T10:34:39;17.10;99.90
43089;DHT22;28709;52.030;5.652;2023-08-07T10:37:07;17.10;99.90
43089;DHT22;28709;52.030;5.652;2023-08-07T10:39:33;17.00;99.90
43089;DHT22;28709;52.030;5.652;2023-08-07T10:41:59;17.00;99.90
43089;DHT22;28709;52.030;5.652;2023-08-07T10:44:30;16.90;99.90
43089;DHT22;28709;52.030;5.652;2023-08-07T10:46:57;17.00;99.90
43089;DHT22;28709;52.030;5.652;2023-08-07T10:49:35;17.00;99.90
43089;DHT22;28709;52.030;5.652;2023-08-07T10:52:13;17.10;99.90
43089;DHT22;28709;52.030;5.652;2023-08-07T10:54:47;17.20;99.90
43089;DHT22;28709;52.030;5.652;2023-08-07T10:57:14;17.40;99.90
43089;DHT22;28709;52.030;5.652;2023-08-07T11:02:29;18.10;99.90
43089;DHT22;28709;52.030;5.652;2023-08-07T11:04:55;18.50;99.90
43089;DHT22;28709;52.030;5.652;2023-08-07T11:07:29;18.90;99.90
43089;DHT22;28709;52.030;5.652;2023-08-07T11:09:55;19.00;99.90
43089;DHT22;28709;52.030;5.652;2023-08-07T11:12:29;19.00;99.90
43089;DHT22;28709;52.030;5.652;2023-08-07T11:14:57;18.80;99.90
43089;DHT22;28709;52.030;5.652;2023-08-07T11:17:27;18.70;99.90
43089;DHT22;28709;52.030;5.652;2023-08-07T11:19:53;18.80;99.90
43089;DHT22;28709;52.030;5.652;2023-08-07T11:22:19;18.90;99.90
43089;DHT22;28709;52.030;5.652;2023-08-07T11:24:47;19.00;99.90
43089;DHT22;28709;52.030;5.652;2023-08-07T11:27:13;19.00;99.90
43089;DHT22;28709;52.030;5.652;2023-08-07T11:29:38;19.00;99.90
43089;DHT22;28709;52.030;5.652;2023-08-07T11:32:05;18.90;99.90
43089;DHT22;28709;52.030;5.652;2023-08-07T11:34:30;18.80;99.90
43089;DHT22;28709;52.030;5.652;2023-08-07T11:36:56;18.60;99.90
43089;DHT22;28709;52.030;5.652;2023-08-07T11:39:23;18.40;99.90
43089;DHT22;28709;52.030;5.652;2023-08-07T11:41:53;18.40;99.90
43089;DHT22;28709;52.030;5.652;2023-08-07T11:44:19;18.30;99.90
43089;DHT22;28709;52.030;5.652;2023-08-07T11:46:44;18.30;99.90
43089;DHT22;28709;52.030;5.652;2023-08-07T11:49:10;18.30;99.90
43089;DHT22;28709;52.030;5.652;2023-08-07T11:51:37;18.20;99.90
43089;DHT22;28709;52.030;5.652;2023-08-07T11:54:03;18.20;99.90
43089;DHT22;28709;52.030;5.652;2023-08-07T11:56:29;18.20;99.90
43089;DHT22;28709;52.030;5.652;2023-08-07T11:58:56;18.40;99.90
43089;DHT22;28709;52.030;5.652;2023-08-07T12:01:24;18.80;99.90
43089;DHT22;28709;52.030;5.652;2023-08-07T12:04:07;19.10;99.90
43089;DHT22;28709;52.030;5.652;2023-08-07T12:06:34;19.30;99.90
43089;DHT22;28709;52.030;5.652;2023-08-07T12:09:07;19.20;99.90
43089;DHT22;28709;52.030;5.652;2023-08-07T12:11:38;19.30;99.90
43089;DHT22;28709;52.030;5.652;2023-08-07T12:14:04;19.50;99.90
43089;DHT22;28709;52.030;5.652;2023-08-07T12:16:36;19.70;99.90
43089;DHT22;28709;52.030;5.652;2023-08-07T12:19:03;19.90;99.90
43089;DHT22;28709;52.030;5.652;2023-08-07T12:21:29;20.10;99.90
43089;DHT22;28709;52.030;5.652;2023-08-07T12:23:57;20.10;99.90
43089;DHT22;28709;52.030;5.652;2023-08-07T12:26:24;19.90;99.90
43089;DHT22;28709;52.030;5.652;2023-08-07T12:28:50;19.70;99.90
43089;DHT22;28709;52.030;5.652;2023-08-07T12:31:17;19.50;99.90
43089;DHT22;28709;52.030;5.652;2023-08-07T12:33:43;19.40;99.90
43089;DHT22;28709;52.030;5.652;2023-08-07T12:36:09;19.40;99.90
43089;DHT22;28709;52.030;5.652;2023-08-07T12:38:35;19.50;99.90
43089;DHT22;28709;52.030;5.652;2023-08-07T12:41:01;19.70;99.90
43089;DHT22;28709;52.030;5.652;2023-08-07T12:43:28;19.80;99.90
43089;DHT22;28709;52.030;5.652;2023-08-07T12:45:54;19.90;99.90
43089;DHT22;28709;52.030;5.652;2023-08-07T12:48:20;20.10;99.90
43089;DHT22;28709;52.030;5.652;2023-08-07T12:50:45;20.20;99.90
43089;DHT22;28709;52.030;5.652;2023-08-07T12:53:11;20.30;99.90
43089;DHT22;28709;52.030;5.652;2023-08-07T12:55:37;20.40;99.90
43089;DHT22;28709;52.030;5.652;2023-08-07T12:58:02;20.50;99.90
43089;DHT22;28709;52.030;5.652;2023-08-07T13:00:28;20.70;99.90
43089;DHT22;28709;52.030;5.652;2023-08-07T13:02:54;20.90;99.90
43089;DHT22;28709;52.030;5.652;2023-08-07T13:05:22;21.00;99.90
43089;DHT22;28709;52.030;5.652;2023-08-07T13:07:48;21.00;99.90
43089;DHT22;28709;52.030;5.652;2023-08-07T13:10:15;21.00;99.90
43089;DHT22;28709;52.030;5.652;2023-08-07T13:12:43;21.10;99.90
43089;DHT22;28709;52.030;5.652;2023-08-07T13:15:12;21.10;99.90
43089;DHT22;28709;52.030;5.652;2023-08-07T13:17:42;21.00;99.90
43089;DHT22;28709;52.030;5.652;2023-08-07T13:20:08;20.80;99.90
43089;DHT22;28709;52.030;5.652;2023-08-07T13:25:01;20.30;99.90
43089;DHT22;28709;52.030;5.652;2023-08-07T13:27:29;20.10;99.90
43089;DHT22;28709;52.030;5.652;2023-08-07T13:29:55;19.90;99.90
43089;DHT22;28709;52.030;5.652;2023-08-07T13:32:20;19.70;99.90
43089;DHT22;28709;52.030;5.652;2023-08-07T13:34:46;19.60;99.90
43089;DHT22;28709;52.030;5.652;2023-08-07T13:37:12;19.40;99.90
43089;DHT22;28709;52.030;5.652;2023-08-07T13:39:38;19.20;99.90
43089;DHT22;28709;52.030;5.652;2023-08-07T13:42:04;19.10;99.90
43089;DHT22;28709;52.030;5.652;2023-08-07T13:44:29;19.20;99.90
43089;DHT22;28709;52.030;5.652;2023-08-07T13:46:55;19.20;99.90
43089;DHT22;28709;52.030;5.652;2023-08-07T13:49:21;19.50;99.90
43089;DHT22;28709;52.030;5.652;2023-08-07T13:51:49;19.70;99.90
43089;DHT22;28709;52.030;5.652;2023-08-07T13:54:14;20.00;99.90
43089;DHT22;28709;52.030;5.652;2023-08-07T13:56:40;20.10;99.90
43089;DHT22;28709;52.030;5.652;2023-08-07T13:59:06;20.20;99.50
43089;DHT22;28709;52.030;5.652;2023-08-07T14:01:31;20.40;99.90
43089;DHT22;28709;52.030;5.652;2023-08-07T14:03:58;20.40;99.90
43089;DHT22;28709;52.030;5.652;2023-08-07T14:06:24;20.50;99.90
43089;DHT22;28709;52.030;5.652;2023-08-07T14:08:49;20.50;98.60
43089;DHT22;28709;52.030;5.652;2023-08-07T14:11:15;20.50;98.20
43089;DHT22;28709;52.030;5.652;2023-08-07T14:13:41;20.40;97.70
43089;DHT22;28709;52.030;5.652;2023-08-07T14:16:07;20.30;97.10
43089;DHT22;28709;52.030;5.652;2023-08-07T14:18:33;20.20;97.50
43089;DHT22;28709;52.030;5.652;2023-08-07T14:20:59;20.20;97.80
43089;DHT22;28709;52.030;5.652;2023-08-07T14:23:24;20.20;97.80
43089;DHT22;28709;52.030;5.652;2023-08-07T14:25:50;20.20;98.00
43089;DHT22;28709;52.030;5.652;2023-08-07T14:28:18;20.20;98.00
43089;DHT22;28709;52.030;5.652;2023-08-07T14:30:44;20.20;98.20
43089;DHT22;28709;52.030;5.652;2023-08-07T14:33:09;20.10;98.40
43089;DHT22;28709;52.030;5.652;2023-08-07T14:35:35;20.00;98.00
43089;DHT22;28709;52.030;5.652;2023-08-07T14:38:01;20.00;98.30
43089;DHT22;28709;52.030;5.652;2023-08-07T14:40:26;19.90;98.50
43089;DHT22;28709;52.030;5.652;2023-08-07T14:42:53;20.00;98.30
43089;DHT22;28709;52.030;5.652;2023-08-07T14:45:20;20.00;98.10
43089;DHT22;28709;52.030;5.652;2023-08-07T14:47:48;20.00;97.60
43089;DHT22;28709;52.030;5.652;2023-08-07T14:50:13;20.00;97.40
43089;DHT22;28709;52.030;5.652;2023-08-07T14:52:41;20.00;97.50
43089;DHT22;28709;52.030;5.652;2023-08-07T14:55:06;19.90;97.40
43089;DHT22;28709;52.030;5.652;2023-08-07T14:57:32;19.70;98.00
43089;DHT22;28709;52.030;5.652;2023-08-07T14:59:58;19.50;99.00
43089;DHT22;28709;52.030;5.652;2023-08-07T15:02:24;19.50;99.00
43089;DHT22;28709;52.030;5.652;2023-08-07T15:04:49;19.70;99.10
43089;DHT22;28709;52.030;5.652;2023-08-07T15:07:15;19.70;99.10
43089;DHT22;28709;52.030;5.652;2023-08-07T15:09:41;19.70;99.30
43089;DHT22;28709;52.030;5.652;2023-08-07T15:12:07;19.70;99.50
43089;DHT22;28709;52.030;5.652;2023-08-07T15:14:33;19.70;99.60
43089;DHT22;28709;52.030;5.652;2023-08-07T15:16:59;19.70;99.30
43089;DHT22;28709;52.030;5.652;2023-08-07T15:19:24;19.60;99.60
43089;DHT22;28709;52.030;5.652;2023-08-07T15:21:51;19.60;99.60
43089;DHT22;28709;52.030;5.652;2023-08-07T15:24:16;19.50;99.90
43089;DHT22;28709;52.030;5.652;2023-08-07T15:26:42;19.50;99.60
43089;DHT22;28709;52.030;5.652;2023-08-07T15:29:08;19.50;99.60
43089;DHT22;28709;52.030;5.652;2023-08-07T15:31:33;19.50;99.00
43089;DHT22;28709;52.030;5.652;2023-08-07T15:33:59;19.50;99.20
43089;DHT22;28709;52.030;5.652;2023-08-07T15:36:25;19.50;99.60
43089;DHT22;28709;52.030;5.652;2023-08-07T15:38:51;19.40;99.70
43089;DHT22;28709;52.030;5.652;2023-08-07T15:41:17;19.20;99.90